Terminal Aerodrome Forecast
Issued by NWS Memphis, TN

Home | Current Version | Previous Version | Text Only | Print | Product List | Glossary On
Versions: 1 2 3 4 5 6 7 8 9 10 11 12 13 14 15 16 17 18 19 20 21 22 23 24 25 26 27 28 29 30 31 32 33 34 35 36 37 38
000
FTUS44 KMEG 180258 AAA
TAFMEM
TAF AMD
KMEM 180258Z 1803/1824 10005KT P6SM SCT250
     FM180700 10003KT 4SM BR SCT005 BKN250
      TEMPO 1809/1813 2SM BR BKN005 BKN250
     FM181400 11006KT P6SM SCT025 OVC200
     FM182100 12007KT P6SM VCTS BKN040CB OVC120=

USA.gov is the U.S. government's official web portal to all federal, state and local government web resources and services.